sensor_id;sensor_type;location;lat;lon;timestamp;pressure;altitude;pressure_sealevel;temperature;humidity
69955;BME280;57279;55.912;37.490;2023-05-23T00:02:08;99732.09;;;11.95;77.15
69955;BME280;57279;55.912;37.490;2023-05-23T00:04:34;99729.91;;;11.91;77.37
69955;BME280;57279;55.912;37.490;2023-05-23T00:07:03;99728.28;;;11.90;77.31
69955;BME280;57279;55.912;37.490;2023-05-23T00:09:28;99724.44;;;11.86;77.60
69955;BME280;57279;55.912;37.490;2023-05-23T00:11:54;99721.44;;;11.83;77.62
69955;BME280;57279;55.912;37.490;2023-05-23T00:14:20;99723.88;;;11.84;77.47
69955;BME280;57279;55.912;37.490;2023-05-23T00:16:46;99731.44;;;11.82;77.92
69955;BME280;57279;55.912;37.490;2023-05-23T00:19:14;99720.03;;;11.75;77.75
69955;BME280;57279;55.912;37.490;2023-05-23T00:21:41;99722.72;;;11.75;77.92
69955;BME280;57279;55.912;37.490;2023-05-23T00:24:08;99720.22;;;11.68;78.13
69955;BME280;57279;55.912;37.490;2023-05-23T00:26:35;99718.06;;;11.65;78.31
69955;BME280;57279;55.912;37.490;2023-05-23T00:29:00;99720.22;;;11.63;78.11
69955;BME280;57279;55.912;37.490;2023-05-23T00:31:26;99718.75;;;11.55;78.30
69955;BME280;57279;55.912;37.490;2023-05-23T00:33:52;99723.06;;;11.51;78.14
69955;BME280;57279;55.912;37.490;2023-05-23T00:36:18;99729.00;;;11.48;78.36
69955;BME280;57279;55.912;37.490;2023-05-23T00:38:43;99726.03;;;11.50;78.46
69955;BME280;57279;55.912;37.490;2023-05-23T00:41:12;99718.44;;;11.47;78.53
69955;BME280;57279;55.912;37.490;2023-05-23T00:43:38;99722.19;;;11.46;78.19
69955;BME280;57279;55.912;37.490;2023-05-23T00:46:04;99718.44;;;11.47;78.33
69955;BME280;57279;55.912;37.490;2023-05-23T00:48:30;99721.13;;;11.47;78.40
69955;BME280;57279;55.912;37.490;2023-05-23T00:50:56;99716.53;;;11.47;78.61
69955;BME280;57279;55.912;37.490;2023-05-23T00:53:22;99721.38;;;11.45;78.51
69955;BME280;57279;55.912;37.490;2023-05-23T00:55:48;99722.91;;;11.36;78.30
69955;BME280;57279;55.912;37.490;2023-05-23T00:58:15;99723.38;;;11.28;78.28
69955;BME280;57279;55.912;37.490;2023-05-23T01:00:42;99724.44;;;11.27;78.54
69955;BME280;57279;55.912;37.490;2023-05-23T01:03:09;99723.31;;;11.23;78.46
69955;BME280;57279;55.912;37.490;2023-05-23T01:05:46;99715.75;;;11.20;78.64
69955;BME280;57279;55.912;37.490;2023-05-23T01:08:11;99722.22;;;11.19;78.68
69955;BME280;57279;55.912;37.490;2023-05-23T01:10:39;99715.69;;;11.14;78.67
69955;BME280;57279;55.912;37.490;2023-05-23T01:13:09;99716.75;;;11.13;78.97
69955;BME280;57279;55.912;37.490;2023-05-23T01:15:49;99720.53;;;11.12;78.49
69955;BME280;57279;55.912;37.490;2023-05-23T01:21:08;99710.75;;;11.06;78.64
69955;BME280;57279;55.912;37.490;2023-05-23T01:28:53;99712.28;;;10.97;78.53
69955;BME280;57279;55.912;37.490;2023-05-23T01:31:21;99707.19;;;11.01;78.87
69955;BME280;57279;55.912;37.490;2023-05-23T01:33:49;99706.88;;;10.97;78.85
69955;BME280;57279;55.912;37.490;2023-05-23T01:36:17;99707.69;;;10.98;78.77
69955;BME280;57279;55.912;37.490;2023-05-23T01:38:43;99702.81;;;11.00;79.11
69955;BME280;57279;55.912;37.490;2023-05-23T01:41:09;99702.59;;;11.01;78.99
69955;BME280;57279;55.912;37.490;2023-05-23T01:43:36;99700.19;;;11.05;78.92
69955;BME280;57279;55.912;37.490;2023-05-23T01:46:03;99697.25;;;11.06;78.57
69955;BME280;57279;55.912;37.490;2023-05-23T01:48:30;99702.09;;;11.04;78.73
69955;BME280;57279;55.912;37.490;2023-05-23T01:50:57;99702.81;;;11.00;78.57
69955;BME280;57279;55.912;37.490;2023-05-23T01:53:24;99696.06;;;10.97;78.80
69955;BME280;57279;55.912;37.490;2023-05-23T01:55:51;99702.28;;;10.98;78.75
69955;BME280;57279;55.912;37.490;2023-05-23T01:58:20;99694.09;;;10.92;78.82
69955;BME280;57279;55.912;37.490;2023-05-23T02:00:45;99706.00;;;10.91;79.09
69955;BME280;57279;55.912;37.490;2023-05-23T02:03:11;99727.84;;;10.90;78.83
69955;BME280;57279;55.912;37.490;2023-05-23T02:05:37;99709.44;;;10.87;78.89
69955;BME280;57279;55.912;37.490;2023-05-23T02:08:03;99711.09;;;10.88;79.34
69955;BME280;57279;55.912;37.490;2023-05-23T02:10:28;99695.50;;;10.95;79.31
69955;BME280;57279;55.912;37.490;2023-05-23T02:12:54;99695.28;;;11.02;79.25
69955;BME280;57279;55.912;37.490;2023-05-23T02:15:20;99694.00;;;11.09;79.27
69955;BME280;57279;55.912;37.490;2023-05-23T02:17:45;99684.31;;;11.13;79.10
69955;BME280;57279;55.912;37.490;2023-05-23T02:20:12;99684.63;;;11.17;78.91
69955;BME280;57279;55.912;37.490;2023-05-23T02:22:38;99685.47;;;11.18;79.26
69955;BME280;57279;55.912;37.490;2023-05-23T02:25:05;99688.97;;;11.18;79.05
69955;BME280;57279;55.912;37.490;2023-05-23T02:27:31;99677.38;;;11.23;79.40
69955;BME280;57279;55.912;37.490;2023-05-23T02:29:57;99683.66;;;11.28;79.36
69955;BME280;57279;55.912;37.490;2023-05-23T02:32:22;99680.19;;;11.33;79.31
69955;BME280;57279;55.912;37.490;2023-05-23T02:34:49;99680.50;;;11.37;79.07
69955;BME280;57279;55.912;37.490;2023-05-23T02:37:15;99687.56;;;11.43;78.50
69955;BME280;57279;55.912;37.490;2023-05-23T02:39:42;99688.44;;;11.48;78.60
69955;BME280;57279;55.912;37.490;2023-05-23T02:42:08;99683.34;;;11.52;77.83
69955;BME280;57279;55.912;37.490;2023-05-23T02:44:34;99679.34;;;11.60;77.50
69955;BME280;57279;55.912;37.490;2023-05-23T02:47:00;99676.09;;;11.63;77.23
69955;BME280;57279;55.912;37.490;2023-05-23T02:49:26;99673.75;;;11.71;76.90
69955;BME280;57279;55.912;37.490;2023-05-23T02:51:51;99672.69;;;11.78;76.42
69955;BME280;57279;55.912;37.490;2023-05-23T02:54:17;99674.91;;;11.86;76.37
69955;BME280;57279;55.912;37.490;2023-05-23T02:56:44;99677.44;;;11.92;76.27
69955;BME280;57279;55.912;37.490;2023-05-23T02:59:10;99673.66;;;11.99;75.53
69955;BME280;57279;55.912;37.490;2023-05-23T03:01:36;99681.56;;;12.05;75.83
69955;BME280;57279;55.912;37.490;2023-05-23T03:04:02;99682.41;;;12.11;75.41
69955;BME280;57279;55.912;37.490;2023-05-23T03:06:28;99681.63;;;12.16;75.46
69955;BME280;57279;55.912;37.490;2023-05-23T03:08:56;99682.97;;;12.18;75.14
69955;BME280;57279;55.912;37.490;2023-05-23T03:11:22;99689.22;;;12.24;75.00
69955;BME280;57279;55.912;37.490;2023-05-23T03:13:47;99689.78;;;12.26;74.72
69955;BME280;57279;55.912;37.490;2023-05-23T03:16:13;99680.91;;;12.30;75.43
69955;BME280;57279;55.912;37.490;2023-05-23T03:18:39;99688.75;;;12.32;74.64
69955;BME280;57279;55.912;37.490;2023-05-23T03:21:06;99680.34;;;12.33;74.94
69955;BME280;57279;55.912;37.490;2023-05-23T03:23:32;99695.28;;;12.36;75.04
69955;BME280;57279;55.912;37.490;2023-05-23T03:25:58;99689.59;;;12.38;73.56
69955;BME280;57279;55.912;37.490;2023-05-23T03:28:24;99689.59;;;12.38;72.77
69955;BME280;57279;55.912;37.490;2023-05-23T03:30:50;99699.34;;;12.39;72.26
69955;BME280;57279;55.912;37.490;2023-05-23T03:33:16;99693.41;;;12.42;72.14
69955;BME280;57279;55.912;37.490;2023-05-23T03:35:42;99682.56;;;12.47;72.42
69955;BME280;57279;55.912;37.490;2023-05-23T03:38:09;99685.06;;;12.54;72.43
69955;BME280;57279;55.912;37.490;2023-05-23T03:40:35;99686.44;;;12.61;71.76
69955;BME280;57279;55.912;37.490;2023-05-23T03:43:05;99676.97;;;12.69;72.24
69955;BME280;57279;55.912;37.490;2023-05-23T03:45:34;99678.34;;;12.77;71.94
69955;BME280;57279;55.912;37.490;2023-05-23T03:48:04;99680.84;;;12.83;71.74
69955;BME280;57279;55.912;37.490;2023-05-23T03:50:29;99687.06;;;12.84;71.66
69955;BME280;57279;55.912;37.490;2023-05-23T03:52:55;99679.47;;;12.86;71.52
69955;BME280;57279;55.912;37.490;2023-05-23T03:55:23;99677.84;;;12.90;71.56
69955;BME280;57279;55.912;37.490;2023-05-23T03:57:50;99681.13;;;12.97;70.61
69955;BME280;57279;55.912;37.490;2023-05-23T04:00:17;99681.41;;;13.06;70.84
69955;BME280;57279;55.912;37.490;2023-05-23T04:02:44;99679.25;;;13.13;71.02
69955;BME280;57279;55.912;37.490;2023-05-23T04:05:12;99678.47;;;13.18;71.11
69955;BME280;57279;55.912;37.490;2023-05-23T04:07:38;99677.91;;;13.21;70.75
69955;BME280;57279;55.912;37.490;2023-05-23T04:10:07;99681.19;;;13.28;70.52
69955;BME280;57279;55.912;37.490;2023-05-23T04:12:33;99679.59;;;13.37;70.30
69955;BME280;57279;55.912;37.490;2023-05-23T04:14:59;99670.91;;;13.45;70.49
69955;BME280;57279;55.912;37.490;2023-05-23T04:17:25;99673.38;;;13.52;69.81
69955;BME280;57279;55.912;37.490;2023-05-23T04:19:56;99673.63;;;13.56;69.54
69955;BME280;57279;55.912;37.490;2023-05-23T04:22:22;99680.69;;;13.62;70.22
69955;BME280;57279;55.912;37.490;2023-05-23T04:24:48;99673.63;;;13.66;70.07
69955;BME280;57279;55.912;37.490;2023-05-23T04:27:13;99663.84;;;13.70;69.95
69955;BME280;57279;55.912;37.490;2023-05-23T04:29:40;99673.63;;;13.71;69.36
69955;BME280;57279;55.912;37.490;2023-05-23T04:32:06;99663.31;;;13.73;69.60
69955;BME280;57279;55.912;37.490;2023-05-23T04:34:32;99666.28;;;13.72;69.17
69955;BME280;57279;55.912;37.490;2023-05-23T04:36:59;99672.00;;;13.75;68.98
69955;BME280;57279;55.912;37.490;2023-05-23T04:39:29;99674.44;;;13.77;68.66
69955;BME280;57279;55.912;37.490;2023-05-23T04:42:14;99669.00;;;13.77;68.77
69955;BME280;57279;55.912;37.490;2023-05-23T04:44:58;99669.00;;;13.77;68.73
69955;BME280;57279;55.912;37.490;2023-05-23T04:47:49;99665.19;;;13.78;68.32
69955;BME280;57279;55.912;37.490;2023-05-23T04:50:28;99674.41;;;13.82;68.77
69955;BME280;57279;55.912;37.490;2023-05-23T04:52:57;99669.50;;;13.89;68.28
69955;BME280;57279;55.912;37.490;2023-05-23T04:55:23;99673.56;;;13.97;67.80
69955;BME280;57279;55.912;37.490;2023-05-23T04:57:49;99671.94;;;14.06;67.72
69955;BME280;57279;55.912;37.490;2023-05-23T05:00:15;99673.00;;;14.15;67.93
69955;BME280;57279;55.912;37.490;2023-05-23T05:02:41;99677.31;;;14.26;67.78
69955;BME280;57279;55.912;37.490;2023-05-23T05:05:08;99682.97;;;14.40;67.33
69955;BME280;57279;55.912;37.490;2023-05-23T05:07:34;99681.03;;;14.51;67.46
69955;BME280;57279;55.912;37.490;2023-05-23T05:10:04;99675.03;;;14.59;67.27
69955;BME280;57279;55.912;37.490;2023-05-23T05:12:32;99679.88;;;14.68;66.99
69955;BME280;57279;55.912;37.490;2023-05-23T05:14:58;99689.66;;;14.74;66.50
69955;BME280;57279;55.912;37.490;2023-05-23T05:17:24;99681.72;;;14.77;66.02
69955;BME280;57279;55.912;37.490;2023-05-23T05:20:03;99696.13;;;14.83;66.15
69955;BME280;57279;55.912;37.490;2023-05-23T05:22:35;99693.66;;;14.86;66.08
69955;BME280;57279;55.912;37.490;2023-05-23T05:25:02;99698.25;;;14.91;66.14
69955;BME280;57279;55.912;37.490;2023-05-23T05:27:29;99698.78;;;14.98;65.62
69955;BME280;57279;55.912;37.490;2023-05-23T05:29:55;99703.63;;;15.01;65.14
69955;BME280;57279;55.912;37.490;2023-05-23T05:32:31;99702.50;;;15.08;65.40
69955;BME280;57279;55.912;37.490;2023-05-23T05:34:59;99715.00;;;15.14;64.70
69955;BME280;57279;55.912;37.490;2023-05-23T05:37:26;99713.63;;;15.16;64.49
69955;BME280;57279;55.912;37.490;2023-05-23T05:39:53;99698.06;;;15.22;64.09
69955;BME280;57279;55.912;37.490;2023-05-23T05:42:20;99707.00;;;15.33;63.30
69955;BME280;57279;55.912;37.490;2023-05-23T05:44:47;99697.94;;;15.42;63.46
69955;BME280;57279;55.912;37.490;2023-05-23T05:47:14;99700.06;;;15.45;62.82
69955;BME280;57279;55.912;37.490;2023-05-23T05:49:40;99699.50;;;15.54;62.71
69955;BME280;57279;55.912;37.490;2023-05-23T05:52:07;99699.25;;;15.50;62.43
69955;BME280;57279;55.912;37.490;2023-05-23T05:54:33;99688.59;;;15.54;62.65
69955;BME280;57279;55.912;37.490;2023-05-23T05:56:59;99688.00;;;15.57;62.73
69955;BME280;57279;55.912;37.490;2023-05-23T05:59:25;99691.50;;;15.62;62.09
69955;BME280;57279;55.912;37.490;2023-05-23T06:01:53;99685.22;;;15.67;62.00
69955;BME280;57279;55.912;37.490;2023-05-23T06:04:19;99683.81;;;15.75;62.30
69955;BME280;57279;55.912;37.490;2023-05-23T06:06:45;99690.84;;;15.81;61.89
69955;BME280;57279;55.912;37.490;2023-05-23T06:09:10;99690.56;;;15.82;62.08
69955;BME280;57279;55.912;37.490;2023-05-23T06:11:36;99690.56;;;15.82;61.97
69955;BME280;57279;55.912;37.490;2023-05-23T06:14:08;99688.63;;;15.83;62.17
69955;BME280;57279;55.912;37.490;2023-05-23T06:16:36;99678.00;;;15.87;61.94
69955;BME280;57279;55.912;37.490;2023-05-23T06:19:02;99681.25;;;15.89;62.21
69955;BME280;57279;55.912;37.490;2023-05-23T06:21:29;99682.53;;;15.96;62.04
69955;BME280;57279;55.912;37.490;2023-05-23T06:23:55;99676.75;;;16.03;62.19
69955;BME280;57279;55.912;37.490;2023-05-23T06:26:21;99673.38;;;16.11;62.16
69955;BME280;57279;55.912;37.490;2023-05-23T06:28:46;99673.03;;;16.18;61.68
69955;BME280;57279;55.912;37.490;2023-05-23T06:31:12;99663.19;;;16.22;61.97
69955;BME280;57279;55.912;37.490;2023-05-23T06:33:38;99667.81;;;16.21;62.01
69955;BME280;57279;55.912;37.490;2023-05-23T06:36:04;99664.75;;;16.28;62.42
69955;BME280;57279;55.912;37.490;2023-05-23T06:38:31;99661.44;;;16.31;61.61
69955;BME280;57279;55.912;37.490;2023-05-23T06:40:59;99658.16;;;16.34;62.63
69955;BME280;57279;55.912;37.490;2023-05-23T06:43:27;99660.44;;;16.46;61.86
69955;BME280;57279;55.912;37.490;2023-05-23T06:46:02;99660.84;;;16.58;61.37
69955;BME280;57279;55.912;37.490;2023-05-23T06:48:29;99650.91;;;16.68;61.33
69955;BME280;57279;55.912;37.490;2023-05-23T06:50:54;99659.47;;;16.80;61.92
69955;BME280;57279;55.912;37.490;2023-05-23T06:53:21;99648.22;;;16.87;60.71
69955;BME280;57279;55.912;37.490;2023-05-23T06:55:49;99647.78;;;16.98;61.07
69955;BME280;57279;55.912;37.490;2023-05-23T06:58:17;99649.56;;;17.08;60.39
69955;BME280;57279;55.912;37.490;2023-05-23T07:00:43;99644.00;;;17.13;60.25
69955;BME280;57279;55.912;37.490;2023-05-23T07:03:35;99636.47;;;17.24;59.77
69955;BME280;57279;55.912;37.490;2023-05-23T07:06:06;99642.81;;;17.38;59.72
69955;BME280;57279;55.912;37.490;2023-05-23T07:08:32;99626.66;;;17.42;58.46
69955;BME280;57279;55.912;37.490;2023-05-23T07:10:59;99631.13;;;17.52;58.98
69955;BME280;57279;55.912;37.490;2023-05-23T07:13:30;99627.09;;;17.63;58.81
69955;BME280;57279;55.912;37.490;2023-05-23T07:15:55;99626.19;;;17.68;58.02
69955;BME280;57279;55.912;37.490;2023-05-23T07:18:22;99618.63;;;17.78;57.84
69955;BME280;57279;55.912;37.490;2023-05-23T07:20:48;99620.91;;;17.90;57.65
69955;BME280;57279;55.912;37.490;2023-05-23T07:23:17;99623.72;;;17.99;57.72
69955;BME280;57279;55.912;37.490;2023-05-23T07:25:44;99613.84;;;18.03;56.98
69955;BME280;57279;55.912;37.490;2023-05-23T07:28:20;99609.19;;;18.04;56.47
69955;BME280;57279;55.912;37.490;2023-05-23T07:30:47;99610.38;;;18.11;56.01
69955;BME280;57279;55.912;37.490;2023-05-23T07:33:13;99623.25;;;18.25;56.64
69955;BME280;57279;55.912;37.490;2023-05-23T07:35:40;99609.25;;;18.40;55.90
69955;BME280;57279;55.912;37.490;2023-05-23T07:38:06;99613.59;;;18.55;56.09
69955;BME280;57279;55.912;37.490;2023-05-23T07:40:32;99612.66;;;18.73;56.18
69955;BME280;57279;55.912;37.490;2023-05-23T07:42:57;99614.88;;;18.85;55.23
69955;BME280;57279;55.912;37.490;2023-05-23T07:45:25;99613.03;;;18.94;54.28
69955;BME280;57279;55.912;37.490;2023-05-23T07:47:50;99615.81;;;19.03;53.87
69955;BME280;57279;55.912;37.490;2023-05-23T07:50:17;99618.94;;;19.10;53.80
69955;BME280;57279;55.912;37.490;2023-05-23T07:52:45;99614.63;;;19.18;53.63
69955;BME280;57279;55.912;37.490;2023-05-23T07:55:15;99622.91;;;19.27;54.27
69955;BME280;57279;55.912;37.490;2023-05-23T07:57:41;99619.84;;;19.28;52.60
69955;BME280;57279;55.912;37.490;2023-05-23T08:00:08;99632.13;;;19.31;53.23
69955;BME280;57279;55.912;37.490;2023-05-23T08:02:40;99625.31;;;19.28;53.17
69955;BME280;57279;55.912;37.490;2023-05-23T08:05:09;99629.56;;;19.34;52.92
69955;BME280;57279;55.912;37.490;2023-05-23T08:07:36;99624.94;;;19.44;52.76
69955;BME280;57279;55.912;37.490;2023-05-23T08:10:03;99619.84;;;19.51;53.44
69955;BME280;57279;55.912;37.490;2023-05-23T08:12:30;99628.88;;;19.51;52.31
69955;BME280;57279;55.912;37.490;2023-05-23T08:15:05;99629.69;;;19.52;51.77
69955;BME280;57279;55.912;37.490;2023-05-23T08:17:38;99627.94;;;19.56;51.95
69955;BME280;57279;55.912;37.490;2023-05-23T08:20:05;99626.06;;;19.65;52.62
69955;BME280;57279;55.912;37.490;2023-05-23T08:22:31;99628.06;;;19.73;52.79
69955;BME280;57279;55.912;37.490;2023-05-23T08:24:57;99626.28;;;19.78;52.24
69955;BME280;57279;55.912;37.490;2023-05-23T08:27:24;99626.94;;;19.75;51.30
69955;BME280;57279;55.912;37.490;2023-05-23T08:29:54;99626.00;;;19.79;52.52
69955;BME280;57279;55.912;37.490;2023-05-23T08:32:21;99623.72;;;19.72;52.63
69955;BME280;57279;55.912;37.490;2023-05-23T08:34:47;99631.28;;;19.76;53.44
69955;BME280;57279;55.912;37.490;2023-05-23T08:37:13;99624.78;;;19.71;53.03
69955;BME280;57279;55.912;37.490;2023-05-23T08:39:40;99618.91;;;19.56;53.01
69955;BME280;57279;55.912;37.490;2023-05-23T08:42:37;99624.69;;;19.54;54.47
69955;BME280;57279;55.912;37.490;2023-05-23T08:45:06;99622.81;;;19.63;53.82
69955;BME280;57279;55.912;37.490;2023-05-23T08:47:35;99621.69;;;19.64;53.94
69955;BME280;57279;55.912;37.490;2023-05-23T08:50:05;99617.84;;;19.65;53.68
69955;BME280;57279;55.912;37.490;2023-05-23T08:52:34;99623.19;;;19.70;53.65
69955;BME280;57279;55.912;37.490;2023-05-23T08:55:02;99621.81;;;19.82;54.76
69955;BME280;57279;55.912;37.490;2023-05-23T08:57:31;99619.25;;;19.85;54.65
69955;BME280;57279;55.912;37.490;2023-05-23T09:00:12;99615.25;;;19.91;55.09
69955;BME280;57279;55.912;37.490;2023-05-23T09:02:45;99614.63;;;19.95;54.86
69955;BME280;57279;55.912;37.490;2023-05-23T09:05:26;99611.44;;;20.01;55.46
69955;BME280;57279;55.912;37.490;2023-05-23T09:07:51;99612.38;;;19.97;54.71
69955;BME280;57279;55.912;37.490;2023-05-23T09:10:19;99617.88;;;20.05;54.96
69955;BME280;57279;55.912;37.490;2023-05-23T09:12:45;99610.16;;;20.07;54.35
69955;BME280;57279;55.912;37.490;2023-05-23T09:15:11;99605.34;;;20.13;54.38
69955;BME280;57279;55.912;37.490;2023-05-23T09:17:38;99617.47;;;20.21;54.52
69955;BME280;57279;55.912;37.490;2023-05-23T09:20:13;99605.06;;;20.32;53.60
69955;BME280;57279;55.912;37.490;2023-05-23T09:22:48;99616.22;;;20.36;53.20
69955;BME280;57279;55.912;37.490;2023-05-23T09:25:15;99619.75;;;20.36;52.46
69955;BME280;57279;55.912;37.490;2023-05-23T09:27:43;99624.72;;;20.25;54.03
69955;BME280;57279;55.912;37.490;2023-05-23T09:30:10;99631.59;;;20.14;54.10
69955;BME280;57279;55.912;37.490;2023-05-23T09:32:36;99628.38;;;20.03;54.99
69955;BME280;57279;55.912;37.490;2023-05-23T09:35:04;99628.06;;;20.14;54.60
69955;BME280;57279;55.912;37.490;2023-05-23T09:37:34;99635.66;;;20.17;55.38
69955;BME280;57279;55.912;37.490;2023-05-23T09:40:10;99633.09;;;20.20;55.71
69955;BME280;57279;55.912;37.490;2023-05-23T09:42:44;99632.13;;;20.25;56.81
69955;BME280;57279;55.912;37.490;2023-05-23T09:45:15;99639.69;;;20.10;55.73
69955;BME280;57279;55.912;37.490;2023-05-23T09:47:51;99654.63;;;20.04;56.25
69955;BME280;57279;55.912;37.490;2023-05-23T09:50:17;99644.44;;;19.96;55.96
69955;BME280;57279;55.912;37.490;2023-05-23T09:52:43;99642.13;;;19.81;56.14
69955;BME280;57279;55.912;37.490;2023-05-23T09:55:11;99649.66;;;19.75;56.75
69955;BME280;57279;55.912;37.490;2023-05-23T09:57:40;99644.97;;;19.76;56.80
69955;BME280;57279;55.912;37.490;2023-05-23T10:00:08;99651.31;;;19.85;56.75
69955;BME280;57279;55.912;37.490;2023-05-23T10:08:00;99656.84;;;19.94;56.63
69955;BME280;57279;55.912;37.490;2023-05-23T10:10:30;99649.06;;;19.87;56.94
69955;BME280;57279;55.912;37.490;2023-05-23T10:13:01;99659.72;;;19.88;56.59
69955;BME280;57279;55.912;37.490;2023-05-23T10:15:36;99658.25;;;19.82;58.83
69955;BME280;57279;55.912;37.490;2023-05-23T10:18:08;99663.75;;;19.68;58.87
69955;BME280;57279;55.912;37.490;2023-05-23T10:20:38;99669.88;;;19.65;59.76
69955;BME280;57279;55.912;37.490;2023-05-23T10:23:04;99664.16;;;19.53;59.81
69955;BME280;57279;55.912;37.490;2023-05-23T10:25:30;99662.16;;;19.45;59.72
69955;BME280;57279;55.912;37.490;2023-05-23T10:27:57;99657.63;;;19.40;60.26
69955;BME280;57279;55.912;37.490;2023-05-23T10:30:27;99662.84;;;19.28;60.00
69955;BME280;57279;55.912;37.490;2023-05-23T10:32:56;99669.25;;;19.23;61.92
69955;BME280;57279;55.912;37.490;2023-05-23T10:44:14;99671.03;;;19.05;63.55
69955;BME280;57279;55.912;37.490;2023-05-23T10:46:57;99661.13;;;18.95;64.03
69955;BME280;57279;55.912;37.490;2023-05-23T10:52:05;99667.94;;;18.84;64.94
69955;BME280;57279;55.912;37.490;2023-05-23T10:54:35;99668.84;;;18.80;65.39
69955;BME280;57279;55.912;37.490;2023-05-23T10:57:02;99666.81;;;18.71;65.25
69955;BME280;57279;55.912;37.490;2023-05-23T10:59:28;99666.81;;;18.71;66.30
69955;BME280;57279;55.912;37.490;2023-05-23T11:01:54;99663.78;;;18.73;66.04
69955;BME280;57279;55.912;37.490;2023-05-23T11:04:27;99668.44;;;18.72;66.13
69955;BME280;57279;55.912;37.490;2023-05-23T11:06:55;99672.13;;;18.68;67.26
69955;BME280;57279;55.912;37.490;2023-05-23T11:09:21;99670.47;;;18.67;67.60
69955;BME280;57279;55.912;37.490;2023-05-23T11:14:13;99667.06;;;18.47;67.69
69955;BME280;57279;55.912;37.490;2023-05-23T11:16:44;99663.63;;;18.42;68.48
69955;BME280;57279;55.912;37.490;2023-05-23T11:21:52;99648.44;;;18.22;69.74
69955;BME280;57279;55.912;37.490;2023-05-23T11:24:18;99655.41;;;18.14;70.35
69955;BME280;57279;55.912;37.490;2023-05-23T11:26:59;99661.00;;;18.09;71.39
69955;BME280;57279;55.912;37.490;2023-05-23T11:29:29;99669.06;;;18.00;71.69
69955;BME280;57279;55.912;37.490;2023-05-23T11:31:55;99658.63;;;17.88;71.98
69955;BME280;57279;55.912;37.490;2023-05-23T11:34:24;99671.34;;;17.79;72.69
69955;BME280;57279;55.912;37.490;2023-05-23T11:36:54;99668.47;;;17.70;72.89
69955;BME280;57279;55.912;37.490;2023-05-23T11:39:21;99671.97;;;17.57;73.55
69955;BME280;57279;55.912;37.490;2023-05-23T11:44:25;99666.88;;;17.36;74.24
69955;BME280;57279;55.912;37.490;2023-05-23T11:47:02;99682.00;;;17.29;75.10
69955;BME280;57279;55.912;37.490;2023-05-23T11:49:33;99673.66;;;17.20;75.56
69955;BME280;57279;55.912;37.490;2023-05-23T11:52:01;99679.28;;;17.10;76.27
69955;BME280;57279;55.912;37.490;2023-05-23T11:54:27;99684.78;;;17.05;76.86
69955;BME280;57279;55.912;37.490;2023-05-23T11:56:53;99683.69;;;17.06;76.94
69955;BME280;57279;55.912;37.490;2023-05-23T11:59:24;99675.50;;;17.06;76.83
69955;BME280;57279;55.912;37.490;2023-05-23T12:01:53;99676.38;;;17.01;76.67
69955;BME280;57279;55.912;37.490;2023-05-23T12:04:20;99677.78;;;16.98;76.94
69955;BME280;57279;55.912;37.490;2023-05-23T12:06:47;99677.78;;;16.98;77.39
69955;BME280;57279;55.912;37.490;2023-05-23T12:09:13;99677.28;;;16.96;77.08
69955;BME280;57279;55.912;37.490;2023-05-23T12:11:40;99669.91;;;16.97;77.66
69955;BME280;57279;55.912;37.490;2023-05-23T12:14:07;99673.50;;;16.92;77.65
69955;BME280;57279;55.912;37.490;2023-05-23T12:16:33;99667.63;;;16.85;77.39
69955;BME280;57279;55.912;37.490;2023-05-23T12:19:01;99664.56;;;16.87;77.43
69955;BME280;57279;55.912;37.490;2023-05-23T12:21:46;99666.22;;;16.88;77.97
69955;BME280;57279;55.912;37.490;2023-05-23T12:24:14;99664.91;;;16.85;77.78
69955;BME280;57279;55.912;37.490;2023-05-23T12:26:51;99660.81;;;16.83;77.70
69955;BME280;57279;55.912;37.490;2023-05-23T12:29:19;99659.66;;;16.89;77.93
69955;BME280;57279;55.912;37.490;2023-05-23T12:31:47;99644.63;;;16.91;77.83
69955;BME280;57279;55.912;37.490;2023-05-23T12:34:13;99644.47;;;17.02;77.45
69955;BME280;57279;55.912;37.490;2023-05-23T12:36:40;99647.69;;;17.04;77.33
69955;BME280;57279;55.912;37.490;2023-05-23T12:39:09;99647.56;;;17.14;76.97
69955;BME280;57279;55.912;37.490;2023-05-23T12:41:35;99649.03;;;17.25;76.85
69955;BME280;57279;55.912;37.490;2023-05-23T12:44:01;99647.75;;;17.36;76.47
69955;BME280;57279;55.912;37.490;2023-05-23T12:46:28;99638.38;;;17.43;75.81
69955;BME280;57279;55.912;37.490;2023-05-23T12:48:54;99639.59;;;17.50;75.63
69955;BME280;57279;55.912;37.490;2023-05-23T12:51:20;99638.41;;;17.56;74.47
69955;BME280;57279;55.912;37.490;2023-05-23T12:53:46;99637.34;;;17.71;74.24
69955;BME280;57279;55.912;37.490;2023-05-23T12:56:12;99640.50;;;17.78;73.48
69955;BME280;57279;55.912;37.490;2023-05-23T12:58:38;99631.13;;;17.85;73.12
69955;BME280;57279;55.912;37.490;2023-05-23T13:01:04;99631.53;;;17.92;73.67
69955;BME280;57279;55.912;37.490;2023-05-23T13:03:30;99629.19;;;17.99;73.30
69955;BME280;57279;55.912;37.490;2023-05-23T13:05:56;99622.91;;;18.12;72.85
69955;BME280;57279;55.912;37.490;2023-05-23T13:08:22;99631.44;;;18.25;71.73
69955;BME280;57279;55.912;37.490;2023-05-23T13:10:49;99627.19;;;18.32;70.93
69955;BME280;57279;55.912;37.490;2023-05-23T13:13:15;99627.59;;;18.40;70.98
69955;BME280;57279;55.912;37.490;2023-05-23T13:15:40;99620.09;;;18.45;70.71
69955;BME280;57279;55.912;37.490;2023-05-23T13:18:06;99623.41;;;18.56;69.92
69955;BME280;57279;55.912;37.490;2023-05-23T13:20:33;99614.84;;;18.71;69.57
69955;BME280;57279;55.912;37.490;2023-05-23T13:22:59;99607.25;;;18.82;68.94
69955;BME280;57279;55.912;37.490;2023-05-23T13:25:26;99607.00;;;19.06;69.19
69955;BME280;57279;55.912;37.490;2023-05-23T13:27:53;99609.78;;;19.38;67.83